createdAt,value
2022-12-17T00:02:15.829Z,1.30
2022-12-17T00:05:01.853Z,4.07
2022-12-17T00:07:47.324Z,1.20
2022-12-17T00:10:33.006Z,1.83
2022-12-17T00:15:54.291Z,2.00
2022-12-17T00:18:42.469Z,1.83
2022-12-17T00:21:28.988Z,1.67
2022-12-17T00:24:15.335Z,2.07
2022-12-17T00:27:00.663Z,2.10
2022-12-17T00:29:57.671Z,1.73
2022-12-17T00:32:44.412Z,2.60
2022-12-17T00:35:30.259Z,1.93
2022-12-17T00:38:15.874Z,1.70
2022-12-17T00:41:09.848Z,2.03
2022-12-17T00:43:56.358Z,1.80
2022-12-17T00:46:42.583Z,1.63
2022-12-17T00:49:29.436Z,1.43
2022-12-17T00:52:14.936Z,2.00
2022-12-17T00:55:00.951Z,1.23
2022-12-17T00:57:46.197Z,2.17
2022-12-17T01:00:32.275Z,1.67
2022-12-17T01:03:25.044Z,1.33
2022-12-17T01:06:11.829Z,2.17
2022-12-17T01:08:57.618Z,1.70
2022-12-17T01:11:43.513Z,2.37
2022-12-17T01:14:29.017Z,2.40
2022-12-17T01:17:14.726Z,1.27
2022-12-17T01:20:00.157Z,1.30
2022-12-17T01:22:46.811Z,2.37
2022-12-17T01:25:32.442Z,1.93
2022-12-17T01:28:18.111Z,1.73
2022-12-17T01:31:03.728Z,1.37
2022-12-17T01:33:49.249Z,1.60
2022-12-17T01:36:34.683Z,1.63
2022-12-17T01:39:21.960Z,2.40
2022-12-17T01:42:07.696Z,1.70
2022-12-17T01:45:08.825Z,1.83
2022-12-17T01:47:57.858Z,1.20
2022-12-17T01:50:46.014Z,1.40
2022-12-17T01:53:34.125Z,1.60
2022-12-17T01:56:21.414Z,1.43
2022-12-17T01:59:07.595Z,1.23
2022-12-17T02:01:53.503Z,1.90
2022-12-17T02:04:39.307Z,1.73
2022-12-17T02:07:39.990Z,1.90
2022-12-17T02:10:38.703Z,4.63
2022-12-17T02:13:32.461Z,1.37
2022-12-17T02:16:25.749Z,1.80
2022-12-17T02:19:15.696Z,1.10
2022-12-17T02:22:02.228Z,1.87
2022-12-17T02:24:58.317Z,2.63
2022-12-17T02:27:46.582Z,1.40
2022-12-17T02:30:32.199Z,1.77
2022-12-17T02:33:19.277Z,2.40
2022-12-17T02:36:08.401Z,1.73
2022-12-17T02:38:50.298Z,2.23
2022-12-17T02:41:38.712Z,1.47
2022-12-17T02:44:28.021Z,2.23
2022-12-17T02:47:15.508Z,2.00
2022-12-17T02:50:03.520Z,1.43
2022-12-17T02:52:51.332Z,1.10
2022-12-17T02:55:36.801Z,2.30
2022-12-17T02:58:22.308Z,1.67
2022-12-17T03:01:08.951Z,1.43
2022-12-17T03:03:55.541Z,2.00
2022-12-17T03:06:41.066Z,1.63
2022-12-17T03:09:26.666Z,1.97
2022-12-17T03:12:12.215Z,2.17
2022-12-17T03:14:57.652Z,1.50
2022-12-17T03:17:44.326Z,2.10
2022-12-17T03:20:30.324Z,1.83
2022-12-17T03:23:20.871Z,2.20
2022-12-17T03:26:06.401Z,1.60
2022-12-17T03:28:52.028Z,1.50
2022-12-17T03:31:37.327Z,2.33
2022-12-17T03:34:24.332Z,1.47
2022-12-17T03:37:09.659Z,2.07
2022-12-17T03:39:55.198Z,2.33
2022-12-17T03:42:40.609Z,2.77
2022-12-17T03:45:26.612Z,1.43
2022-12-17T03:48:23.066Z,1.33
2022-12-17T03:51:10.287Z,1.40
2022-12-17T03:53:56.406Z,2.10
2022-12-17T03:56:41.958Z,2.00
2022-12-17T03:59:27.819Z,1.47
2022-12-17T04:02:13.450Z,2.60
2022-12-17T04:04:58.850Z,2.17
2022-12-17T04:07:45.708Z,1.90
2022-12-17T04:10:31.231Z,1.50
2022-12-17T04:13:16.972Z,1.33
2022-12-17T04:16:02.529Z,1.57
2022-12-17T04:18:47.744Z,1.77
2022-12-17T04:21:33.168Z,1.00
2022-12-17T04:24:20.167Z,1.30
2022-12-17T04:27:05.471Z,1.10
2022-12-17T04:29:51.136Z,1.27
2022-12-17T04:32:36.655Z,1.03
2022-12-17T04:35:22.553Z,1.23
2022-12-17T04:38:08.625Z,1.70
2022-12-17T04:40:55.206Z,0.73
2022-12-17T04:43:40.693Z,0.90
2022-12-17T04:46:26.281Z,1.13
2022-12-17T04:49:11.734Z,1.17
2022-12-17T04:51:57.447Z,1.00
2022-12-17T04:54:43.051Z,1.60
2022-12-17T04:57:29.946Z,1.80
2022-12-17T05:00:15.360Z,2.07
2022-12-17T05:03:01.097Z,1.33
2022-12-17T05:05:55.014Z,1.63
2022-12-17T05:08:41.682Z,1.53
2022-12-17T05:11:26.960Z,2.13
2022-12-17T05:14:13.575Z,1.13
2022-12-17T05:16:59.067Z,2.20
2022-12-17T05:19:44.571Z,2.30
2022-12-17T05:22:30.107Z,1.37
2022-12-17T05:25:15.515Z,2.23
2022-12-17T05:28:03.837Z,1.90
2022-12-17T05:30:50.468Z,1.93
2022-12-17T05:33:36.370Z,2.30
2022-12-17T05:36:22.623Z,1.83
2022-12-17T05:39:08.324Z,1.80
2022-12-17T05:41:53.649Z,2.07
2022-12-17T05:44:44.274Z,1.47
2022-12-17T05:47:30.735Z,1.60
2022-12-17T05:50:16.783Z,1.93
2022-12-17T05:53:02.101Z,1.70
2022-12-17T05:55:48.089Z,1.70
2022-12-17T05:58:33.674Z,1.73
2022-12-17T06:01:25.693Z,2.23
2022-12-17T06:04:12.587Z,1.50
2022-12-17T06:06:58.087Z,2.00
2022-12-17T06:09:43.628Z,2.10
2022-12-17T06:12:29.205Z,2.83
2022-12-17T06:15:14.786Z,2.17
2022-12-17T06:18:00.369Z,1.50
2022-12-17T06:20:47.205Z,1.77
2022-12-17T06:23:32.919Z,2.20
2022-12-17T06:26:18.348Z,2.17
2022-12-17T06:29:03.774Z,2.67
2022-12-17T06:31:49.600Z,2.30
2022-12-17T06:34:35.393Z,1.87
2022-12-17T06:37:22.208Z,1.73
2022-12-17T06:40:10.040Z,1.97
2022-12-17T06:42:55.620Z,1.83
2022-12-17T06:45:41.152Z,2.10
2022-12-17T06:48:27.569Z,1.80
2022-12-17T06:51:13.135Z,1.63
2022-12-17T06:54:00.298Z,1.70
2022-12-17T06:56:45.842Z,1.40
2022-12-17T06:59:31.339Z,1.80
2022-12-17T07:02:13.306Z,2.40
2022-12-17T07:04:59.019Z,2.23
2022-12-17T07:07:44.622Z,3.20
2022-12-17T07:10:31.750Z,3.20
2022-12-17T07:13:23.862Z,2.37
2022-12-17T07:16:09.722Z,2.47
2022-12-17T07:18:55.853Z,2.33
2022-12-17T07:21:41.553Z,2.43
2022-12-17T07:24:26.883Z,2.63
2022-12-17T07:27:14.136Z,3.67
2022-12-17T07:29:59.396Z,2.77
2022-12-17T07:32:44.961Z,2.23
2022-12-17T07:35:30.646Z,2.83
2022-12-17T07:38:19.469Z,3.27
2022-12-17T07:41:05.037Z,3.80
2022-12-17T07:43:53.357Z,2.33
2022-12-17T07:46:45.052Z,2.67
2022-12-17T07:49:30.541Z,1.80
2022-12-17T07:52:16.002Z,2.17
2022-12-17T07:55:01.641Z,2.93
2022-12-17T07:57:47.098Z,1.93
2022-12-17T08:00:34.396Z,2.33
2022-12-17T08:03:20.396Z,1.33
2022-12-17T08:06:05.787Z,2.73
2022-12-17T08:08:51.221Z,2.17
2022-12-17T08:11:41.853Z,1.63
2022-12-17T08:14:35.841Z,2.13
2022-12-17T08:17:22.378Z,2.20
2022-12-17T08:20:07.323Z,1.57
2022-12-17T08:22:53.111Z,3.30
2022-12-17T08:25:38.500Z,1.40
2022-12-17T08:28:49.688Z,3.07
2022-12-17T08:31:29.658Z,1.43
2022-12-17T08:34:16.145Z,1.40
2022-12-17T08:37:01.814Z,3.07
2022-12-17T08:39:47.055Z,1.93
2022-12-17T08:42:32.523Z,2.40
2022-12-17T08:45:18.133Z,1.60
2022-12-17T08:48:04.248Z,2.33
2022-12-17T08:50:51.151Z,1.77
2022-12-17T08:53:36.954Z,1.97
2022-12-17T08:56:22.843Z,1.70
2022-12-17T08:59:08.432Z,2.00
2022-12-17T09:01:54.481Z,1.97
2022-12-17T09:04:39.958Z,1.97
2022-12-17T09:07:26.758Z,2.63
2022-12-17T09:10:12.636Z,2.40
2022-12-17T09:13:04.248Z,2.77
2022-12-17T09:15:50.134Z,3.07
2022-12-17T09:18:37.410Z,3.00
2022-12-17T09:21:23.326Z,3.73
2022-12-17T09:24:11.188Z,3.80
2022-12-17T09:26:56.560Z,2.77
2022-12-17T09:29:42.086Z,3.00
2022-12-17T09:32:32.985Z,3.00
2022-12-17T09:35:18.901Z,4.93
2022-12-17T09:38:10.988Z,3.77
2022-12-17T09:40:59.152Z,3.27
2022-12-17T09:43:49.120Z,3.27
2022-12-17T09:46:41.592Z,3.37
2022-12-17T09:49:36.514Z,3.13
2022-12-17T09:52:47.965Z,2.50
2022-12-17T09:55:40.111Z,3.37
2022-12-17T09:58:38.449Z,2.93
2022-12-17T10:01:20.966Z,3.00
2022-12-17T10:04:07.444Z,2.57
2022-12-17T10:06:55.116Z,2.77
2022-12-17T10:09:40.732Z,3.37
2022-12-17T10:12:32.872Z,2.97
2022-12-17T10:15:20.389Z,4.53
2022-12-17T10:18:05.972Z,3.00
2022-12-17T10:20:57.427Z,4.40
2022-12-17T10:23:44.956Z,4.23
2022-12-17T10:26:35.922Z,4.87
2022-12-17T10:29:25.471Z,4.40
2022-12-17T10:32:19.745Z,4.27
2022-12-17T10:35:13.939Z,5.13
2022-12-17T10:37:59.365Z,3.97
2022-12-17T10:40:46.487Z,4.57
2022-12-17T10:43:42.824Z,4.53
2022-12-17T10:46:28.346Z,4.10
2022-12-17T10:49:31.037Z,5.77
2022-12-17T10:52:23.098Z,5.27
2022-12-17T10:55:21.180Z,4.13
2022-12-17T10:58:08.795Z,3.53
2022-12-17T11:00:56.412Z,4.93
2022-12-17T11:03:52.367Z,4.23
2022-12-17T11:06:44.912Z,4.53
2022-12-17T11:09:42.572Z,5.17
2022-12-17T11:12:31.029Z,4.63
2022-12-17T11:15:26.098Z,4.60
2022-12-17T11:18:23.730Z,6.23
2022-12-17T11:21:14.740Z,4.40
2022-12-17T11:24:04.880Z,5.20
2022-12-17T11:26:53.370Z,5.37
2022-12-17T11:29:39.057Z,6.00
2022-12-17T11:32:50.622Z,5.03
2022-12-17T11:35:43.890Z,5.43
2022-12-17T11:38:40.283Z,4.53
2022-12-17T11:41:36.853Z,4.80
2022-12-17T11:44:33.711Z,3.87
2022-12-17T11:47:44.415Z,4.63
2022-12-17T11:50:42.301Z,5.67
2022-12-17T11:53:39.562Z,5.40
2022-12-17T11:56:33.738Z,4.73
2022-12-17T11:59:26.542Z,4.23
2022-12-17T12:02:23.417Z,4.93
2022-12-17T12:05:35.971Z,4.27
2022-12-17T12:08:28.614Z,5.07
2022-12-17T12:11:21.363Z,4.07
2022-12-17T12:14:19.002Z,5.73
2022-12-17T12:17:23.934Z,5.33
2022-12-17T12:20:33.045Z,4.87
2022-12-17T12:23:29.598Z,5.10
2022-12-17T12:26:23.649Z,5.67
2022-12-17T12:29:18.054Z,4.83
2022-12-17T12:32:09.700Z,5.37
2022-12-17T12:34:57.390Z,5.13
2022-12-17T12:37:43.875Z,5.00
2022-12-17T12:40:37.721Z,4.30
2022-12-17T12:43:29.142Z,5.07
2022-12-17T12:46:21.588Z,5.40
2022-12-17T12:49:14.025Z,5.97
2022-12-17T12:52:00.021Z,5.40
2022-12-17T12:54:49.368Z,5.93
2022-12-17T12:57:46.235Z,4.27
2022-12-17T13:00:56.113Z,6.67
2022-12-17T13:03:49.067Z,5.27
2022-12-17T13:06:44.302Z,4.83
2022-12-17T13:09:30.738Z,4.13
2022-12-17T13:12:31.067Z,4.30
2022-12-17T13:15:32.902Z,4.97
2022-12-17T13:18:16.245Z,4.80
2022-12-17T13:20:45.690Z,4.30
2022-12-17T13:23:27.113Z,4.17
2022-12-17T13:26:15.849Z,5.77
2022-12-17T13:28:49.215Z,4.10
2022-12-17T13:31:21.996Z,4.27
2022-12-17T13:33:57.910Z,4.10
2022-12-17T13:36:34.527Z,4.30
2022-12-17T13:39:07.965Z,5.43
2022-12-17T13:41:38.692Z,4.10
2022-12-17T13:44:22.294Z,3.57
2022-12-17T13:46:52.332Z,5.13
2022-12-17T13:49:22.731Z,4.20
2022-12-17T13:52:05.224Z,4.87
2022-12-17T13:54:37.045Z,3.27
2022-12-17T13:57:09.407Z,4.30
2022-12-17T13:59:37.688Z,4.80
2022-12-17T14:02:06.223Z,3.70
2022-12-17T14:04:34.646Z,4.83
2022-12-17T14:07:07.247Z,5.10
2022-12-17T14:09:38.349Z,4.30
2022-12-17T14:12:22.207Z,4.50
2022-12-17T14:14:52.761Z,4.13
2022-12-17T14:17:23.605Z,4.80
2022-12-17T14:19:58.284Z,5.80
2022-12-17T14:22:33.905Z,4.63
2022-12-17T14:25:03.017Z,4.60
2022-12-17T14:27:35.378Z,4.80
2022-12-17T14:30:05.405Z,3.67
2022-12-17T14:32:35.947Z,4.43
2022-12-17T14:35:04.904Z,4.07
2022-12-17T14:37:34.344Z,5.10
2022-12-17T14:40:05.747Z,4.90
2022-12-17T14:42:38.300Z,4.30
2022-12-17T14:45:21.645Z,5.53
2022-12-17T14:47:56.149Z,4.73
2022-12-17T14:50:31.760Z,4.47
2022-12-17T14:53:03.636Z,4.73
2022-12-17T14:55:36.448Z,4.83
2022-12-17T14:58:10.656Z,4.07
2022-12-17T15:00:40.714Z,4.43
2022-12-17T15:03:12.482Z,3.50
2022-12-17T15:05:42.107Z,4.53
2022-12-17T15:08:12.614Z,3.40
2022-12-17T15:10:40.891Z,3.30
2022-12-17T15:13:09.334Z,4.93
2022-12-17T15:15:37.496Z,3.10
2022-12-17T15:18:05.899Z,4.47
2022-12-17T15:20:34.017Z,4.17
2022-12-17T15:23:03.586Z,3.43
2022-12-17T15:25:33.223Z,2.87
2022-12-17T15:28:01.399Z,4.83
2022-12-17T15:30:29.697Z,3.53
2022-12-17T15:32:58.465Z,3.90
2022-12-17T15:35:26.954Z,3.97
2022-12-17T15:37:55.077Z,3.63
2022-12-17T15:40:23.209Z,3.70
2022-12-17T15:43:10.254Z,4.07
2022-12-17T15:45:40.796Z,3.40
2022-12-17T15:48:09.139Z,3.13
2022-12-17T15:50:39.159Z,3.43
2022-12-17T15:53:09.290Z,4.40
2022-12-17T15:55:38.209Z,3.73
2022-12-17T15:58:09.113Z,3.80
2022-12-17T16:00:37.408Z,5.10
2022-12-17T16:03:05.884Z,3.30
2022-12-17T16:05:34.251Z,2.77
2022-12-17T16:08:03.336Z,4.40
2022-12-17T16:10:31.781Z,3.77
2022-12-17T16:13:00.100Z,5.90
2022-12-17T16:15:30.608Z,4.20
2022-12-17T16:17:58.872Z,3.33
2022-12-17T16:20:27.282Z,4.63
2022-12-17T16:22:55.575Z,2.53
2022-12-17T16:25:23.819Z,3.47
2022-12-17T16:27:52.001Z,4.27
2022-12-17T16:30:20.995Z,2.97
2022-12-17T16:32:50.530Z,4.17
2022-12-17T16:35:18.862Z,4.67
2022-12-17T16:37:47.120Z,3.60
2022-12-17T16:40:15.397Z,3.80
2022-12-17T16:42:43.521Z,4.13
2022-12-17T16:45:12.374Z,2.70
2022-12-17T16:47:41.541Z,4.73
2022-12-17T16:50:11.346Z,4.57
2022-12-17T16:52:39.533Z,4.27
2022-12-17T16:55:08.586Z,4.17
2022-12-17T16:57:36.700Z,3.47
2022-12-17T17:00:05.591Z,3.80
2022-12-17T17:02:33.837Z,4.13
2022-12-17T17:05:02.501Z,3.50
2022-12-17T17:07:32.082Z,4.27
2022-12-17T17:10:00.168Z,3.50
2022-12-17T17:12:28.481Z,3.50
2022-12-17T17:14:56.774Z,3.20
2022-12-17T17:17:55.371Z,3.23
2022-12-17T17:20:14.290Z,2.90
2022-12-17T17:22:44.608Z,3.50
2022-12-17T17:25:13.517Z,4.63
2022-12-17T17:27:41.804Z,4.07
2022-12-17T17:30:13.501Z,3.20
2022-12-17T17:32:41.694Z,2.73
2022-12-17T17:35:10.276Z,4.43
2022-12-17T17:37:38.455Z,3.40
2022-12-17T17:40:09.762Z,3.70
2022-12-17T17:42:37.825Z,6.27
2022-12-17T17:45:08.744Z,3.40
2022-12-17T17:47:37.795Z,4.77
2022-12-17T17:50:06.734Z,3.37
2022-12-17T17:52:34.869Z,4.10
2022-12-17T17:55:03.376Z,4.27
2022-12-17T17:57:32.981Z,3.67
2022-12-17T18:00:01.204Z,4.20
2022-12-17T18:02:29.668Z,3.83
2022-12-17T18:05:01.935Z,4.77
2022-12-17T18:07:30.338Z,5.73
2022-12-17T18:10:00.997Z,3.07
2022-12-17T18:12:58.963Z,3.80
2022-12-17T18:15:28.969Z,3.57
2022-12-17T18:17:58.718Z,3.20
2022-12-17T18:20:27.711Z,2.93
2022-12-17T18:22:55.895Z,3.90
2022-12-17T18:25:24.178Z,4.37
2022-12-17T18:27:54.245Z,3.87
2022-12-17T18:30:23.299Z,4.90
2022-12-17T18:32:54.530Z,5.17
2022-12-17T18:35:22.570Z,4.53
2022-12-17T18:37:51.299Z,5.67
2022-12-17T18:40:19.544Z,5.10
2022-12-17T18:43:05.186Z,3.73
2022-12-17T18:45:38.411Z,4.27
2022-12-17T18:48:08.553Z,4.53
2022-12-17T18:50:36.767Z,4.33
2022-12-17T18:53:05.645Z,2.33
2022-12-17T18:55:34.399Z,3.57
2022-12-17T18:58:03.756Z,3.13
2022-12-17T19:00:32.042Z,2.93
2022-12-17T19:03:00.448Z,3.27
2022-12-17T19:05:30.407Z,3.63
2022-12-17T19:07:58.953Z,4.00
2022-12-17T19:10:27.543Z,3.00
2022-12-17T19:12:55.713Z,3.27
2022-12-17T19:15:23.903Z,3.20
2022-12-17T19:17:52.473Z,3.67
2022-12-17T19:20:20.537Z,2.50
2022-12-17T19:22:50.489Z,2.53
2022-12-17T19:25:18.882Z,3.23
2022-12-17T19:27:47.076Z,2.40
2022-12-17T19:30:16.445Z,2.40
2022-12-17T19:32:44.491Z,2.63
2022-12-17T19:35:13.057Z,2.10
2022-12-17T19:37:41.395Z,2.57
2022-12-17T19:40:12.440Z,2.97
2022-12-17T19:42:40.853Z,1.90
2022-12-17T19:45:10.139Z,2.33
2022-12-17T19:47:40.009Z,1.80
2022-12-17T19:50:10.786Z,1.80
2022-12-17T19:52:40.205Z,2.23
2022-12-17T19:55:12.196Z,2.03
2022-12-17T19:57:40.803Z,2.27
2022-12-17T20:00:10.945Z,2.50
2022-12-17T20:02:39.622Z,2.53
2022-12-17T20:05:09.673Z,1.87
2022-12-17T20:07:39.065Z,1.20
2022-12-17T20:10:08.925Z,1.97
2022-12-17T20:12:38.938Z,2.37
2022-12-17T20:15:08.160Z,1.50
2022-12-17T20:17:37.031Z,2.10
2022-12-17T20:20:07.668Z,1.60
2022-12-17T20:22:36.725Z,2.27
2022-12-17T20:25:10.576Z,1.90
2022-12-17T20:27:42.470Z,2.13
2022-12-17T20:30:14.111Z,1.80
2022-12-17T20:32:44.006Z,2.80
2022-12-17T20:35:16.023Z,3.37
2022-12-17T20:37:46.286Z,2.23
2022-12-17T20:40:14.870Z,2.23
2022-12-17T20:42:45.155Z,2.20
2022-12-17T20:45:13.571Z,1.80
2022-12-17T20:47:42.156Z,1.67
2022-12-17T20:50:11.668Z,1.93
2022-12-17T20:52:40.103Z,1.90
2022-12-17T20:55:08.993Z,2.27
2022-12-17T20:57:37.806Z,2.37
2022-12-17T21:00:09.695Z,2.47
2022-12-17T21:02:39.344Z,3.10
2022-12-17T21:05:09.072Z,1.70
2022-12-17T21:07:37.426Z,2.60
2022-12-17T21:10:06.645Z,1.73
2022-12-17T21:12:49.230Z,2.57
2022-12-17T21:15:20.747Z,1.67
2022-12-17T21:17:52.219Z,2.43
2022-12-17T21:20:21.299Z,1.87
2022-12-17T21:22:51.966Z,1.50
2022-12-17T21:25:20.749Z,2.30
2022-12-17T21:27:49.651Z,3.93
2022-12-17T21:30:23.006Z,1.83
2022-12-17T21:32:51.712Z,2.10
2022-12-17T21:35:20.580Z,2.60
2022-12-17T21:37:49.843Z,2.23
2022-12-17T21:40:19.461Z,2.00
2022-12-17T21:43:03.260Z,2.00
2022-12-17T21:45:38.697Z,1.50
2022-12-17T21:48:13.003Z,2.13
2022-12-17T21:50:44.347Z,1.63
2022-12-17T21:53:13.964Z,3.17
2022-12-17T21:55:42.899Z,2.60
2022-12-17T21:58:11.731Z,3.23
2022-12-17T22:00:41.500Z,2.40
2022-12-17T22:03:10.259Z,2.70
2022-12-17T22:05:38.682Z,4.03
2022-12-17T22:08:07.083Z,4.00
2022-12-17T22:10:41.488Z,4.10
2022-12-17T22:13:30.153Z,3.70
2022-12-17T22:16:00.012Z,2.30
2022-12-17T22:18:28.929Z,2.57
2022-12-17T22:21:01.365Z,4.10
2022-12-17T22:23:31.462Z,3.67
2022-12-17T22:26:00.424Z,2.80
2022-12-17T22:28:28.765Z,3.60
2022-12-17T22:31:26.279Z,3.80
2022-12-17T22:34:29.124Z,3.20
2022-12-17T22:38:33.754Z,2.90
2022-12-17T22:44:07.826Z,2.73
2022-12-17T22:44:49.751Z,2.60
2022-12-17T22:45:26.980Z,2.87
2022-12-17T22:47:58.928Z,2.83
2022-12-17T22:50:37.452Z,2.00
2022-12-17T22:53:14.841Z,2.53
2022-12-17T22:55:43.700Z,3.00
2022-12-17T22:58:12.184Z,3.53
2022-12-17T23:00:41.959Z,3.77
2022-12-17T23:03:10.710Z,3.23
2022-12-17T23:05:40.627Z,4.00
2022-12-17T23:08:09.382Z,2.90
2022-12-17T23:10:37.788Z,4.43
2022-12-17T23:13:06.730Z,2.13
2022-12-17T23:15:37.533Z,2.90
2022-12-17T23:18:08.119Z,2.50
2022-12-17T23:20:37.925Z,4.17
2022-12-17T23:23:07.918Z,3.87
2022-12-17T23:25:38.099Z,3.67
2022-12-17T23:28:06.575Z,3.17
2022-12-17T23:30:38.141Z,2.60
2022-12-17T23:33:06.770Z,3.43
2022-12-17T23:35:35.104Z,4.23
2022-12-17T23:38:04.589Z,3.60
2022-12-17T23:40:35.506Z,3.43
2022-12-17T23:43:04.903Z,2.70
2022-12-17T23:45:34.052Z,3.13
2022-12-17T23:48:02.894Z,3.17
2022-12-17T23:50:31.912Z,3.23
2022-12-17T23:53:01.130Z,2.93
2022-12-17T23:55:30.852Z,3.33
2022-12-17T23:58:02.193Z,2.77
